Time;durP1;ratioP1;P1;durP2;ratioP2;P2;SDS_P1;SDS_P2;PMS_P1;PMS_P2;Temp;Humidity;BMP_temperature;BMP_pressure;BME280_temperature;BME280_humidity;BME280_pressure;Samples;Min_cycle;Max_cycle;Signal;HPM_P1;HPM_P2
2021/07/02 00:01:37;;;;;;;7.95;4.18;;;;;;;15.91;69.03;97354.19;5030233;28;20119;-77
2021/07/02 00:04:03;;;;;;;6.22;3.67;;;;;;;15.89;68.91;97348.41;5051520;28;20043;-77
2021/07/02 00:06:29;;;;;;;4.30;3.80;;;;;;;15.97;68.80;97359.38;5035904;28;20515;-76
2021/07/02 00:08:54;;;;;;;5.80;4.00;;;;;;;16.04;68.00;97351.97;5052837;28;20048;-77
2021/07/02 00:11:20;;;;;;;4.93;3.72;;;;;;;16.05;68.37;97349.06;5058466;28;20037;-76
2021/07/02 00:13:45;;;;;;;6.35;3.95;;;;;;;16.00;68.62;97346.50;5070098;28;20024;-77
2021/07/02 00:16:11;;;;;;;5.97;3.70;;;;;;;16.01;68.40;97350.69;5050457;28;20037;-77
2021/07/02 00:18:36;;;;;;;6.63;3.95;;;;;;;16.01;68.44;97355.94;5053063;28;20086;-77
2021/07/02 00:21:01;;;;;;;5.65;3.88;;;;;;;15.97;68.34;97351.50;5069477;28;20075;-77
2021/07/02 00:23:27;;;;;;;5.68;3.78;;;;;;;15.99;68.40;97346.75;5052941;28;20103;-76
2021/07/02 00:25:52;;;;;;;5.03;3.58;;;;;;;16.02;68.26;97340.97;5050186;28;20045;-77
2021/07/02 00:28:18;;;;;;;5.88;3.75;;;;;;;16.02;68.54;97346.22;5064380;28;20051;-77
2021/07/02 00:30:43;;;;;;;5.78;4.10;;;;;;;15.97;68.87;97348.88;5051430;28;20040;-77
2021/07/02 00:33:09;;;;;;;5.70;3.35;;;;;;;15.97;68.69;97343.63;5066988;28;20239;-77
2021/07/02 00:35:34;;;;;;;8.52;3.72;;;;;;;16.03;68.82;97353.81;5063140;28;20166;-76
2021/07/02 00:38:00;;;;;;;5.60;4.45;;;;;;;16.06;69.03;97345.41;5037871;28;20037;-77
2021/07/02 00:40:25;;;;;;;7.93;4.47;;;;;;;16.05;68.68;97343.06;5050139;28;20048;-76
2021/07/02 00:42:51;;;;;;;6.20;4.25;;;;;;;16.10;68.76;97343.78;5050977;28;20044;-76
2021/07/02 00:45:16;;;;;;;6.63;3.47;;;;;;;16.00;69.09;97341.25;5015396;28;20025;-77
2021/07/02 00:47:42;;;;;;;4.95;3.28;;;;;;;15.95;68.95;97343.13;5047444;28;20092;-77
2021/07/02 00:50:08;;;;;;;5.55;3.67;;;;;;;15.92;69.19;97336.59;5051814;28;20037;-77
2021/07/02 00:52:33;;;;;;;6.53;3.90;;;;;;;15.91;69.37;97335.78;5050822;28;20159;-77
2021/07/02 00:54:59;;;;;;;6.45;4.20;;;;;;;15.91;69.28;97335.03;5069258;28;20232;-77
2021/07/02 00:57:24;;;;;;;6.03;3.90;;;;;;;15.90;69.68;97334.25;5051997;28;20063;-76
2021/07/02 00:59:50;;;;;;;6.28;3.90;;;;;;;15.93;69.34;97332.13;5030378;28;20558;-77
2021/07/02 01:02:16;;;;;;;5.72;4.00;;;;;;;15.87;69.30;97334.78;5050565;28;20028;-77
2021/07/02 01:04:42;;;;;;;6.00;4.43;;;;;;;15.87;69.38;97334.00;5034452;28;20040;-76
2021/07/02 01:07:07;;;;;;;5.07;4.18;;;;;;;15.81;69.40;97335.88;5021816;28;20025;-77
2021/07/02 01:09:33;;;;;;;6.88;3.45;;;;;;;15.80;69.04;97333.50;5016742;28;20025;-76
2021/07/02 01:11:59;;;;;;;4.43;3.40;;;;;;;15.73;69.16;97333.81;5049488;28;20095;-77
2021/07/02 01:14:24;;;;;;;4.47;3.30;;;;;;;15.66;68.70;97334.13;5053011;28;20032;-77
2021/07/02 01:16:50;;;;;;;4.70;3.08;;;;;;;15.62;69.04;97333.09;5068849;28;20021;-77
2021/07/02 01:19:16;;;;;;;5.82;3.35;;;;;;;15.61;68.73;97328.09;5068971;28;20035;-77
2021/07/02 01:21:44;;;;;;;6.18;3.65;;;;;;;15.50;69.01;97325.53;5030464;28;20422;-77
2021/07/02 01:24:09;;;;;;;5.55;3.30;;;;;;;15.49;69.01;97331.06;5069340;28;20032;-77
2021/07/02 01:26:35;;;;;;;4.55;3.40;;;;;;;15.50;68.81;97330.78;5069232;28;20467;-77
2021/07/02 01:29:00;;;;;;;5.93;3.90;;;;;;;15.49;69.09;97323.19;5051979;28;20052;-77
2021/07/02 01:31:28;;;;;;;4.93;3.60;;;;;;;15.45;69.29;97325.56;5038350;28;20031;-77
2021/07/02 01:33:54;;;;;;;4.93;3.10;;;;;;;15.50;68.93;97322.91;5070279;28;20103;-76
2021/07/02 01:36:25;;;;;;;6.28;3.75;;;;;;;15.40;69.25;97325.59;5035892;28;20534;-77
2021/07/02 01:38:54;;;;;;;5.38;3.30;;;;;;;15.43;69.09;97322.44;5032846;28;20055;-77
2021/07/02 01:41:19;;;;;;;6.35;3.88;;;;;;;15.46;69.29;97314.03;5034961;28;20032;-77
2021/07/02 01:43:48;;;;;;;6.22;3.70;;;;;;;15.45;69.25;97322.19;5030492;28;20025;-77
2021/07/02 01:46:14;;;;;;;6.22;4.15;;;;;;;15.48;69.52;97327.66;5033914;28;20529;-77
2021/07/02 01:48:41;;;;;;;6.30;3.83;;;;;;;15.48;69.79;97322.41;5030366;28;20135;-77
2021/07/02 01:51:06;;;;;;;6.93;4.65;;;;;;;15.50;69.76;97325.53;5047340;28;20035;-77
2021/07/02 01:53:32;;;;;;;5.68;3.30;;;;;;;15.52;69.80;97325.28;5033855;28;20025;-76
2021/07/02 01:55:57;;;;;;;5.55;3.80;;;;;;;15.56;69.67;97328.94;5045871;28;20040;-77
2021/07/02 01:58:23;;;;;;;4.95;3.60;;;;;;;15.57;69.25;97330.50;5030325;28;20075;-77
2021/07/02 02:00:48;;;;;;;5.05;4.05;;;;;;;15.58;69.78;97328.69;5018871;28;20131;-77
2021/07/02 02:03:14;;;;;;;5.55;3.60;;;;;;;15.58;69.61;97320.81;5068521;28;20040;-77
2021/07/02 02:05:39;;;;;;;5.70;4.20;;;;;;;15.55;69.36;97322.13;5061986;28;20032;-77
2021/07/02 02:08:05;;;;;;;5.40;4.35;;;;;;;15.52;69.46;97312.16;5051103;28;20127;-77
2021/07/02 02:10:30;;;;;;;5.15;3.90;;;;;;;15.45;69.47;97320.34;5068227;28;20580;-77
2021/07/02 02:12:57;;;;;;;4.90;3.72;;;;;;;15.33;69.51;97312.00;5051885;28;20043;-77
2021/07/02 02:15:23;;;;;;;7.70;4.82;;;;;;;15.39;69.47;97318.81;5034832;28;20445;-77
2021/07/02 02:17:48;;;;;;;5.57;3.65;;;;;;;15.41;69.56;97315.91;5068079;28;20063;-77
2021/07/02 02:20:14;;;;;;;6.45;3.80;;;;;;;15.36;69.42;97321.97;5051472;28;20052;-76
2021/07/02 02:22:40;;;;;;;5.95;4.00;;;;;;;15.34;69.21;97331.97;5032280;28;20036;-77
2021/07/02 02:25:06;;;;;;;6.60;4.90;;;;;;;15.25;69.47;97318.63;5051249;28;20040;-77
2021/07/02 02:27:33;;;;;;;6.82;4.03;;;;;;;15.27;69.44;97323.59;5034569;28;20029;-77
2021/07/02 02:29:59;;;;;;;6.30;4.50;;;;;;;15.22;69.73;97321.78;5031939;28;20116;-77
2021/07/02 02:32:25;;;;;;;6.13;3.83;;;;;;;15.21;69.61;97322.06;5031469;28;20648;-77
2021/07/02 02:34:50;;;;;;;8.57;4.90;;;;;;;15.19;69.65;97313.69;5051141;28;20116;-77
2021/07/02 02:37:16;;;;;;;6.63;4.43;;;;;;;15.20;69.67;97305.53;5069018;28;20036;-77
2021/07/02 02:39:41;;;;;;;6.85;4.60;;;;;;;15.20;69.57;97304.75;5038237;28;20021;-77
2021/07/02 02:42:07;;;;;;;8.15;5.30;;;;;;;15.22;69.30;97310.53;5066802;28;20044;-77
2021/07/02 02:44:32;;;;;;;7.43;5.35;;;;;;;15.21;69.34;97314.97;5067983;28;20543;-77
2021/07/02 02:46:57;;;;;;;7.20;4.97;;;;;;;15.16;69.46;97309.75;5069329;28;20056;-77
2021/07/02 02:49:23;;;;;;;8.10;5.50;;;;;;;15.12;69.48;97313.97;5051210;28;20028;-77
2021/07/02 02:51:49;;;;;;;10.05;5.95;;;;;;;15.08;69.61;97302.44;5051018;28;20033;-77
2021/07/02 02:54:14;;;;;;;7.43;5.55;;;;;;;15.09;69.47;97304.78;5034176;28;20071;-77
2021/07/02 02:57:03;;;;;;;8.23;5.35;;;;;;;14.98;69.24;97309.31;5068976;28;20089;-77
2021/07/02 02:59:27;;;;;;;8.25;5.65;;;;;;;14.98;69.07;97313.78;5050732;28;20129;-77
2021/07/02 03:01:53;;;;;;;8.85;5.18;;;;;;;14.95;69.09;97314.31;5031526;28;20128;-77
2021/07/02 03:04:18;;;;;;;6.28;4.47;;;;;;;14.90;69.39;97316.94;5049589;28;20124;-77
2021/07/02 03:06:44;;;;;;;7.00;4.88;;;;;;;14.86;69.40;97315.94;5037746;28;20167;-77
2021/07/02 03:09:09;;;;;;;6.05;4.47;;;;;;;14.84;69.26;97313.56;5041768;28;20448;-77
2021/07/02 03:11:34;;;;;;;5.45;4.00;;;;;;;14.81;69.17;97313.31;5051701;28;20044;-77
2021/07/02 03:14:01;;;;;;;6.03;4.80;;;;;;;14.82;69.25;97317.50;5049346;28;20107;-77
2021/07/02 03:16:26;;;;;;;5.93;4.70;;;;;;;14.77;69.58;97315.66;5049164;28;20403;-77
2021/07/02 03:18:52;;;;;;;7.30;5.15;;;;;;;14.81;69.40;97323.81;5034761;28;20040;-77
2021/07/02 03:21:17;;;;;;;9.23;6.03;;;;;;;14.78;69.98;97320.66;5071623;28;20024;-77
2021/07/02 03:23:43;;;;;;;8.45;5.88;;;;;;;14.78;69.66;97323.28;5054753;28;20115;-77
2021/07/02 03:26:08;;;;;;;8.57;5.63;;;;;;;14.75;70.00;97326.44;5031436;28;20036;-77
2021/07/02 03:28:35;;;;;;;9.40;5.47;;;;;;;14.74;69.87;97324.88;5040745;28;20033;-77
2021/07/02 03:31:01;;;;;;;8.25;5.80;;;;;;;14.77;70.24;97328.78;5071248;28;20079;-77
2021/07/02 03:33:27;;;;;;;8.07;5.95;;;;;;;14.70;69.90;97323.84;5038028;28;20045;-77
2021/07/02 03:35:52;;;;;;;9.02;5.78;;;;;;;14.68;70.07;97328.53;5040210;28;20025;-77
2021/07/02 03:38:18;;;;;;;9.75;5.63;;;;;;;14.68;70.03;97330.38;5046732;28;20036;-77
2021/07/02 03:40:43;;;;;;;8.77;5.47;;;;;;;14.68;70.08;97343.50;5037749;28;20021;-77
2021/07/02 03:43:09;;;;;;;7.57;5.45;;;;;;;14.66;69.52;97342.97;5072536;28;20036;-77
2021/07/02 03:45:34;;;;;;;7.68;5.50;;;;;;;14.65;69.96;97338.78;5054263;28;20064;-77
2021/07/02 03:48:00;;;;;;;7.78;5.10;;;;;;;14.65;70.07;97341.41;5037753;28;20104;-77
2021/07/02 03:50:25;;;;;;;9.00;5.40;;;;;;;14.62;70.18;97340.09;5054633;28;20175;-77
2021/07/02 03:52:51;;;;;;;8.82;6.03;;;;;;;14.69;70.00;97347.69;5047839;28;20542;-77
2021/07/02 03:55:16;;;;;;;8.60;5.50;;;;;;;14.64;70.32;97345.84;5054436;28;20140;-78
2021/07/02 03:57:42;;;;;;;9.55;6.57;;;;;;;14.66;70.22;97340.34;5053095;28;20479;-77
2021/07/02 04:00:07;;;;;;;12.50;7.25;;;;;;;14.69;69.96;97345.84;5066487;28;20051;-77
2021/07/02 04:02:33;;;;;;;9.20;6.43;;;;;;;14.73;70.06;97348.72;5070912;28;20514;-77
2021/07/02 04:04:59;;;;;;;9.70;6.30;;;;;;;14.68;70.04;97346.88;5053864;28;20060;-78
2021/07/02 04:07:25;;;;;;;9.05;6.90;;;;;;;14.73;69.96;97346.88;5070485;28;20079;-77
2021/07/02 04:09:51;;;;;;;12.48;7.57;;;;;;;14.79;70.10;97353.69;5034111;28;20613;-77
2021/07/02 04:12:16;;;;;;;11.38;6.93;;;;;;;14.90;70.03;97343.16;5051139;28;20033;-77
2021/07/02 04:14:44;;;;;;;9.65;6.78;;;;;;;15.00;69.33;97353.63;5053743;28;20040;-77
2021/07/02 04:17:10;;;;;;;7.95;6.00;;;;;;;15.01;68.93;97349.94;5053393;28;20063;-77
2021/07/02 04:19:36;;;;;;;10.18;6.20;;;;;;;15.02;69.33;97364.63;5053651;28;20674;-77
2021/07/02 04:22:03;;;;;;;9.27;5.70;;;;;;;15.04;68.56;97359.09;5053028;28;20024;-77
2021/07/02 04:24:29;;;;;;;8.95;6.25;;;;;;;15.05;68.79;97361.47;5071751;28;20080;-77
2021/07/02 04:26:54;;;;;;;8.43;5.70;;;;;;;15.13;68.88;97360.91;5053438;28;20128;-77
2021/07/02 04:29:20;;;;;;;9.60;6.18;;;;;;;15.12;68.81;97367.19;5052804;28;20074;-77
2021/07/02 04:31:45;;;;;;;12.07;7.00;;;;;;;15.22;68.79;97363.75;5070206;28;20694;-77
2021/07/02 04:34:11;;;;;;;7.68;5.85;;;;;;;15.28;68.75;97365.28;5053625;28;20067;-77
2021/07/02 04:36:36;;;;;;;9.95;6.72;;;;;;;15.34;68.42;97366.84;5052962;28;20060;-77
2021/07/02 04:39:03;;;;;;;10.82;7.18;;;;;;;15.45;68.49;97369.41;5050137;28;20033;-77
2021/07/02 04:41:28;;;;;;;9.88;7.70;;;;;;;15.46;68.46;97374.38;5037189;28;20368;-77
2021/07/02 04:43:53;;;;;;;8.93;5.85;;;;;;;15.48;68.97;97376.75;5049494;28;20028;-77
2021/07/02 04:46:19;;;;;;;10.20;7.03;;;;;;;15.62;68.69;97380.34;5069939;28;20515;-77
2021/07/02 04:48:44;;;;;;;10.82;7.57;;;;;;;15.63;68.12;97371.41;5049520;28;20033;-77
2021/07/02 04:51:10;;;;;;;10.32;6.93;;;;;;;15.72;68.45;97379.50;5069231;28;20036;-76
2021/07/02 04:53:36;;;;;;;11.32;7.07;;;;;;;15.78;68.22;97373.19;5036113;28;20083;-76
2021/07/02 04:56:01;;;;;;;8.90;6.47;;;;;;;15.71;67.79;97373.47;5070792;28;20029;-77
2021/07/02 04:58:27;;;;;;;9.85;6.95;;;;;;;15.79;67.79;97376.59;5049381;28;20036;-77
2021/07/02 05:00:52;;;;;;;8.82;6.43;;;;;;;15.90;67.70;97376.25;5050181;28;20028;-77
2021/07/02 05:03:17;;;;;;;10.32;7.18;;;;;;;15.99;66.12;97378.28;5070192;28;20033;-76
2021/07/02 05:05:43;;;;;;;10.18;6.43;;;;;;;16.06;66.00;97379.53;5036040;28;20071;-77
2021/07/02 05:08:10;;;;;;;9.98;6.72;;;;;;;16.11;65.98;97381.38;5029033;28;20578;-77
2021/07/02 05:10:36;;;;;;;9.43;7.07;;;;;;;16.24;65.43;97385.19;5035619;28;20595;-77
2021/07/02 05:13:02;;;;;;;9.38;6.95;;;;;;;16.28;64.19;97381.75;5051855;28;20033;-77
2021/07/02 05:15:28;;;;;;;8.23;6.18;;;;;;;16.39;64.08;97390.31;5035806;28;20028;-77
2021/07/02 05:17:53;;;;;;;8.75;5.43;;;;;;;16.44;63.59;97390.25;5052733;28;20043;-76
2021/07/02 05:20:19;;;;;;;9.40;6.45;;;;;;;16.53;62.86;97392.31;5065573;28;20028;-76
2021/07/02 05:22:44;;;;;;;10.00;6.63;;;;;;;16.59;63.01;97399.09;5068092;28;20541;-77
2021/07/02 05:25:10;;;;;;;9.23;6.85;;;;;;;16.70;63.02;97397.13;5068260;28;20040;-76
2021/07/02 05:27:37;;;;;;;8.35;5.80;;;;;;;16.76;61.99;97385.50;5050932;28;20032;-76
2021/07/02 05:30:03;;;;;;;10.45;6.38;;;;;;;16.83;60.81;97391.22;5049273;28;20044;-77
2021/07/02 05:32:28;;;;;;;9.82;6.18;;;;;;;16.94;59.58;97389.28;5034728;28;20043;-76
2021/07/02 05:34:54;;;;;;;8.73;6.03;;;;;;;16.96;60.07;97402.94;5069086;28;20036;-76
2021/07/02 05:37:19;;;;;;;9.40;6.10;;;;;;;17.04;60.10;97384.69;5031702;28;20036;-76
2021/07/02 05:39:45;;;;;;;8.93;6.10;;;;;;;17.12;59.58;97385.13;5069284;28;20025;-77
2021/07/02 05:42:10;;;;;;;8.63;6.45;;;;;;;17.17;59.21;97388.50;5051243;28;20032;-76
2021/07/02 05:44:35;;;;;;;9.57;6.63;;;;;;;17.21;59.67;97393.97;5015767;28;20131;-76
2021/07/02 05:47:01;;;;;;;9.50;6.05;;;;;;;17.25;58.80;97392.34;5066985;28;20036;-76
2021/07/02 05:49:26;;;;;;;12.30;7.53;;;;;;;17.22;57.88;97392.91;5068894;28;20028;-76
2021/07/02 05:51:52;;;;;;;10.38;6.82;;;;;;;17.26;57.70;97395.78;5025586;28;20055;-76
2021/07/02 05:54:18;;;;;;;7.90;5.78;;;;;;;17.15;57.44;97398.53;5050111;28;20765;-76
2021/07/02 05:56:43;;;;;;;12.77;6.75;;;;;;;17.09;57.45;97393.59;5050674;28;20063;-77
2021/07/02 05:59:08;;;;;;;8.77;7.10;;;;;;;17.04;57.89;97395.22;5048384;28;20036;-76
2021/07/02 06:01:34;;;;;;;9.48;6.28;;;;;;;17.02;57.95;97394.72;5067639;28;20058;-76
2021/07/02 06:03:59;;;;;;;9.68;6.30;;;;;;;17.13;57.25;97395.38;5066952;28;20028;-76
2021/07/02 06:06:25;;;;;;;10.65;7.13;;;;;;;17.20;57.23;97405.56;5064077;28;20157;-77
2021/07/02 06:08:52;;;;;;;8.82;7.03;;;;;;;17.34;56.85;97401.19;5050417;28;20503;-76
2021/07/02 06:11:18;;;;;;;7.88;6.22;;;;;;;17.48;56.51;97405.75;5067456;28;20040;-76
2021/07/02 06:13:44;;;;;;;9.60;6.97;;;;;;;17.63;56.18;97408.16;5040395;28;20372;-76
2021/07/02 06:16:09;;;;;;;9.27;7.07;;;;;;;17.72;57.18;97411.75;5034059;28;20235;-76
2021/07/02 06:18:35;;;;;;;7.25;5.85;;;;;;;17.99;56.10;97412.97;5029177;28;20040;-76
2021/07/02 06:21:01;;;;;;;8.07;6.18;;;;;;;18.24;55.33;97397.84;5067306;28;20028;-76
2021/07/02 06:23:33;;;;;;;8.95;6.70;;;;;;;18.43;53.66;97401.22;5040097;28;20562;-76
2021/07/02 06:25:58;;;;;;;7.97;6.57;;;;;;;18.69;53.59;97406.03;5049852;28;20048;-76
2021/07/02 06:28:24;;;;;;;8.48;5.78;;;;;;;18.83;52.00;97412.16;5067985;28;20037;-76
2021/07/02 06:30:49;;;;;;;8.48;6.60;;;;;;;18.93;52.60;97405.13;5067818;28;20120;-76
2021/07/02 06:33:16;;;;;;;7.75;5.93;;;;;;;19.02;52.21;97413.91;5068304;28;20060;-76
2021/07/02 06:35:41;;;;;;;9.63;6.38;;;;;;;19.35;50.79;97413.81;5051217;28;20028;-76
2021/07/02 06:38:06;;;;;;;7.63;5.88;;;;;;;19.64;49.63;97416.88;5031565;28;20033;-76
2021/07/02 06:40:34;;;;;;;8.57;6.28;;;;;;;19.92;48.30;97408.13;5070194;28;20047;-75
2021/07/02 06:42:59;;;;;;;7.60;6.13;;;;;;;20.12;46.92;97420.09;5065454;28;20036;-75
2021/07/02 06:45:25;;;;;;;7.57;5.40;;;;;;;20.26;47.27;97412.13;5055369;28;20020;-76
2021/07/02 06:47:55;;;;;;;7.90;5.30;;;;;;;20.27;48.01;97425.03;5047740;28;20040;-76
2021/07/02 06:50:21;;;;;;;7.85;5.93;;;;;;;20.57;46.85;97412.13;5020315;28;20476;-76
2021/07/02 06:52:47;;;;;;;8.02;6.03;;;;;;;20.48;49.95;97432.47;5061528;28;20090;-76
2021/07/02 06:55:12;;;;;;;9.55;6.25;;;;;;;20.64;49.04;97425.72;5053004;28;20036;-76
2021/07/02 06:57:37;;;;;;;8.43;6.57;;;;;;;20.84;46.80;97428.97;5070804;28;20044;-76
2021/07/02 07:00:04;;;;;;;8.23;5.63;;;;;;;21.00;48.22;97429.31;5046743;28;20046;-76
2021/07/02 07:02:34;;;;;;;8.18;5.88;;;;;;;21.35;46.56;97430.19;5070998;28;20111;-76
2021/07/02 07:04:59;;;;;;;8.75;5.70;;;;;;;21.53;46.63;97430.28;5049967;28;20033;-76
2021/07/02 07:07:24;;;;;;;6.53;5.35;;;;;;;21.68;45.80;97421.88;5070401;28;20036;-76
2021/07/02 07:09:50;;;;;;;5.63;4.97;;;;;;;22.05;44.77;97428.44;5034883;28;20033;-76
2021/07/02 07:12:15;;;;;;;6.13;5.53;;;;;;;22.16;44.04;97425.47;5070570;28;20052;-75
2021/07/02 07:14:41;;;;;;;7.18;5.80;;;;;;;22.32;43.17;97425.78;5046620;28;20048;-76
2021/07/02 07:17:10;;;;;;;6.22;5.25;;;;;;;22.35;42.38;97425.16;5048900;28;20119;-75
2021/07/02 07:19:37;;;;;;;6.80;5.55;;;;;;;22.46;41.19;97431.69;5037022;28;20033;-75
2021/07/02 07:22:02;;;;;;;7.28;5.32;;;;;;;22.54;40.98;97424.81;5049407;28;20032;-76
2021/07/02 07:24:28;;;;;;;8.52;6.18;;;;;;;22.56;43.04;97433.22;5037541;28;20368;-75
2021/07/02 07:26:55;;;;;;;7.20;5.80;;;;;;;22.70;41.86;97427.72;5069725;28;20036;-76
2021/07/02 07:29:20;;;;;;;7.80;5.50;;;;;;;22.89;41.83;97422.81;5049336;28;20043;-76
2021/07/02 07:31:45;;;;;;;6.30;5.40;;;;;;;23.02;42.25;97428.25;5069528;28;20064;-76
2021/07/02 07:34:11;;;;;;;7.20;5.50;;;;;;;23.06;41.70;97421.22;5053297;28;20093;-76
2021/07/02 07:36:39;;;;;;;7.75;5.47;;;;;;;23.19;41.17;97430.84;5068794;28;20033;-75
2021/07/02 07:39:05;;;;;;;6.53;5.75;;;;;;;23.45;39.29;97425.38;5032546;28;20021;-75
2021/07/02 07:41:30;;;;;;;6.50;5.72;;;;;;;23.55;40.57;97425.00;5068247;28;20052;-75
2021/07/02 07:43:56;;;;;;;6.28;5.18;;;;;;;23.69;39.00;97419.41;5052637;28;20040;-75
2021/07/02 07:46:23;;;;;;;6.50;5.63;;;;;;;23.64;39.80;97427.59;5033519;28;20461;-75
2021/07/02 07:48:49;;;;;;;6.03;5.53;;;;;;;23.61;40.16;97433.53;5066897;28;20460;-75
2021/07/02 07:53:40;;;;;;;6.68;5.53;;;;;;;23.65;42.73;97445.09;5061843;28;20128;-75
2021/07/02 07:56:05;;;;;;;6.75;6.07;;;;;;;24.08;39.23;97444.03;5070552;28;20028;-75
2021/07/02 07:58:30;;;;;;;5.68;5.05;;;;;;;24.45;37.85;97446.84;5050227;28;20071;-75
2021/07/02 08:00:55;;;;;;;6.32;5.60;;;;;;;24.47;38.30;97446.47;5066895;28;20082;-75
2021/07/02 08:03:21;;;;;;;7.90;5.75;;;;;;;24.60;37.20;97440.09;5062831;28;20038;-75
2021/07/02 08:05:46;;;;;;;9.05;5.68;;;;;;;24.59;39.12;97443.91;5052371;28;20110;-75
2021/07/02 08:08:13;;;;;;;6.70;5.22;;;;;;;24.46;37.51;97445.72;5041255;28;20112;-75
2021/07/02 08:10:39;;;;;;;7.18;5.25;;;;;;;24.22;38.71;97453.63;5046619;28;20032;-75
2021/07/02 08:13:04;;;;;;;6.85;5.47;;;;;;;24.14;39.11;97459.78;5049631;28;20086;-75
2021/07/02 08:15:30;;;;;;;8.20;5.35;;;;;;;24.04;40.07;97451.13;5030387;28;20036;-75
2021/07/02 08:17:56;;;;;;;5.47;4.75;;;;;;;23.91;39.43;97460.91;5029987;28;20127;-75
2021/07/02 08:20:21;;;;;;;7.60;4.95;;;;;;;23.71;39.81;97465.06;5062068;28;20039;-75
2021/07/02 08:22:46;;;;;;;6.35;4.85;;;;;;;23.61;39.45;97462.78;5070625;28;20605;-75
2021/07/02 08:25:12;;;;;;;6.30;5.65;;;;;;;23.40;39.97;97459.34;5052539;28;20090;-75
2021/07/02 08:30:22;;;;;;;6.80;5.30;;;;;;;23.17;40.53;97452.41;5031717;28;20074;-75
2021/07/02 08:32:48;;;;;;;6.75;5.30;;;;;;;23.23;40.54;97455.66;5069046;28;20278;-75
2021/07/02 08:35:15;;;;;;;6.53;5.90;;;;;;;23.00;42.04;97465.72;5047283;28;20024;-76
2021/07/02 08:37:40;;;;;;;6.25;5.03;;;;;;;23.04;39.80;97464.00;5048760;28;20124;-75
2021/07/02 08:40:06;;;;;;;5.28;4.78;;;;;;;22.71;41.04;97472.53;5068838;28;20111;-75
2021/07/02 08:42:32;;;;;;;6.65;5.95;;;;;;;22.85;40.54;97480.31;5050973;28;20471;-75
2021/07/02 08:44:57;;;;;;;7.10;5.40;;;;;;;23.05;41.17;97464.75;5048937;28;20432;-75
2021/07/02 08:47:24;;;;;;;5.80;5.10;;;;;;;23.28;41.05;97467.97;5034890;28;20543;-76
2021/07/02 08:49:50;;;;;;;6.20;4.88;;;;;;;23.48;43.38;97467.25;5066759;28;20098;-75
2021/07/02 08:52:15;;;;;;;6.78;5.28;;;;;;;23.35;44.96;97474.34;5030404;28;20111;-74
2021/07/02 08:54:40;;;;;;;5.75;4.78;;;;;;;23.34;43.48;97474.69;5058013;28;20656;-75
2021/07/02 08:57:06;;;;;;;5.82;4.60;;;;;;;23.18;43.33;97475.22;5039329;28;20079;-75
2021/07/02 08:59:32;;;;;;;5.65;5.10;;;;;;;23.38;41.10;97476.38;5051829;28;20060;-75
2021/07/02 09:01:57;;;;;;;6.43;4.63;;;;;;;23.68;41.14;97481.69;5017513;28;20116;-75
2021/07/02 09:04:29;;;;;;;6.13;5.15;;;;;;;23.74;39.54;97480.38;5033916;28;20032;-75
2021/07/02 09:07:15;;;;;;;6.20;5.00;;;;;;;23.44;40.46;97481.50;5016709;28;20032;-75
2021/07/02 09:09:57;;;;;;;5.72;5.13;;;;;;;23.42;40.70;97483.69;5034636;28;20040;-75
2021/07/02 09:12:31;;;;;;;6.30;5.18;;;;;;;23.43;40.33;97480.72;5053670;28;20483;-75
2021/07/02 09:15:09;;;;;;;5.88;5.28;;;;;;;23.41;40.48;97482.13;5061306;28;20020;-75
2021/07/02 09:17:55;;;;;;;6.57;5.50;;;;;;;22.96;40.02;97478.06;5066903;28;20360;-75
2021/07/02 09:20:34;;;;;;;5.88;5.28;;;;;;;23.02;40.21;97491.97;5049185;28;20475;-75
2021/07/02 09:23:04;;;;;;;5.70;5.10;;;;;;;22.89;40.16;97489.19;5067792;28;20520;-75
2021/07/02 09:25:48;;;;;;;6.78;5.50;;;;;;;22.69;40.38;97498.63;5045431;28;20040;-75
2021/07/02 09:28:16;;;;;;;5.88;4.97;;;;;;;22.84;41.01;97502.63;5032618;28;20123;-75
2021/07/02 09:30:49;;;;;;;7.18;5.20;;;;;;;22.69;41.89;97500.47;5023717;28;20119;-75
2021/07/02 09:33:25;;;;;;;6.25;4.90;;;;;;;22.38;41.95;97502.25;5039109;28;20411;-75
2021/07/02 09:35:54;;;;;;;6.65;5.38;;;;;;;22.49;42.22;97507.25;5046958;28;20471;-74
2021/07/02 09:38:33;;;;;;;6.43;5.82;;;;;;;22.25;42.26;97508.47;5044696;28;20063;-75
2021/07/02 09:40:58;;;;;;;6.90;5.22;;;;;;;22.55;42.51;97514.72;5064769;28;20388;-75
2021/07/02 09:43:30;;;;;;;6.70;5.53;;;;;;;22.46;42.05;97507.84;5041089;28;20029;-75
2021/07/02 09:46:04;;;;;;;6.65;5.28;;;;;;;22.62;42.74;97511.59;5067602;28;20041;-75
2021/07/02 09:48:31;;;;;;;6.47;5.32;;;;;;;22.92;44.91;97509.78;5050058;28;20479;-75
2021/07/02 09:51:02;;;;;;;6.05;5.43;;;;;;;23.00;42.65;97513.53;5043965;28;20037;-75
2021/07/02 09:53:30;;;;;;;6.50;5.68;;;;;;;23.11;41.68;97516.66;5060478;28;20047;-75
2021/07/02 09:55:58;;;;;;;7.30;5.70;;;;;;;23.12;43.26;97520.88;5030360;28;20075;-75
2021/07/02 09:58:28;;;;;;;7.63;5.78;;;;;;;22.90;41.95;97517.31;5050186;28;20081;-75
2021/07/02 10:01:01;;;;;;;7.97;5.85;;;;;;;22.70;41.44;97512.66;5001468;28;20043;-75
2021/07/02 10:03:31;;;;;;;10.40;6.38;;;;;;;22.71;42.24;97512.34;5068870;28;20028;-75
2021/07/02 10:05:57;;;;;;;8.50;6.57;;;;;;;22.84;41.40;97515.91;5050436;28;20081;-75
2021/07/02 10:08:33;;;;;;;7.97;6.45;;;;;;;22.59;41.51;97515.66;5060414;28;20510;-74
2021/07/02 10:11:00;;;;;;;8.52;6.82;;;;;;;22.57;41.75;97523.16;5068153;28;20081;-75
2021/07/02 10:13:31;;;;;;;7.85;6.32;;;;;;;22.38;43.48;97520.03;5017678;28;20535;-75
2021/07/02 10:15:59;;;;;;;8.07;6.10;;;;;;;22.49;41.68;97523.94;5031826;28;20040;-75
2021/07/02 10:18:27;;;;;;;8.73;5.57;;;;;;;22.28;44.53;97518.47;5031097;28;20028;-75
2021/07/02 10:20:55;;;;;;;10.35;6.43;;;;;;;22.44;42.63;97521.44;5049446;28;20028;-75
2021/07/02 10:23:26;;;;;;;8.85;6.28;;;;;;;22.43;42.81;97525.16;5050871;28;20051;-75
2021/07/02 10:25:52;;;;;;;7.78;6.35;;;;;;;22.53;43.82;97519.53;5036890;28;20035;-75
2021/07/02 10:28:18;;;;;;;9.32;6.22;;;;;;;22.60;44.56;97525.19;5015717;28;20127;-75
2021/07/02 10:30:43;;;;;;;9.00;6.40;;;;;;;22.70;44.17;97518.75;5066514;28;20115;-75
2021/07/02 10:33:09;;;;;;;7.47;6.20;;;;;;;23.16;42.32;97514.59;5033899;28;20047;-75
2021/07/02 10:35:35;;;;;;;9.43;6.18;;;;;;;23.50;45.56;97512.88;5047399;28;20413;-75
2021/07/02 10:38:02;;;;;;;7.40;5.95;;;;;;;23.73;44.38;97508.09;5050065;28;20356;-75
2021/07/02 10:40:36;;;;;;;7.45;6.10;;;;;;;24.13;43.17;97509.56;5042024;28;20369;-75
2021/07/02 10:43:22;;;;;;;6.78;5.30;;;;;;;24.36;41.66;97515.31;5030381;28;20179;-76
2021/07/02 10:46:09;;;;;;;7.47;6.47;;;;;;;24.20;39.66;97509.81;5048637;28;20071;-75
2021/07/02 10:48:52;;;;;;;6.85;5.82;;;;;;;24.05;42.95;97505.84;5068140;28;20040;-75
2021/07/02 10:51:39;;;;;;;6.75;6.05;;;;;;;24.04;41.03;97514.94;5028344;28;20056;-75
2021/07/02 10:54:13;;;;;;;7.85;5.70;;;;;;;23.64;40.72;97512.66;5050169;28;20035;-75
2021/07/02 10:56:44;;;;;;;6.45;5.65;;;;;;;23.42;44.28;97511.03;5043714;28;20074;-75
2021/07/02 10:59:12;;;;;;;7.15;6.05;;;;;;;23.24;43.92;97509.59;5050326;28;20056;-75
2021/07/02 11:01:37;;;;;;;7.13;5.57;;;;;;;23.32;43.56;97514.06;5033629;28;20060;-75
2021/07/02 11:04:34;;;;;;;9.20;6.38;;;;;;;23.90;42.64;97514.41;5033179;28;20091;-75
2021/07/02 11:07:02;;;;;;;8.60;6.05;;;;;;;24.31;40.74;97499.53;5067741;28;20032;-75
2021/07/02 11:09:54;;;;;;;6.38;5.78;;;;;;;24.23;42.54;97500.38;5050271;28;20035;-75
2021/07/02 11:12:24;;;;;;;6.85;5.63;;;;;;;24.30;41.92;97498.78;5049664;28;20345;-75
2021/07/02 11:14:53;;;;;;;6.53;5.93;;;;;;;24.45;40.54;97500.06;5068203;28;20578;-75
2021/07/02 11:17:23;;;;;;;7.53;5.93;;;;;;;24.51;39.63;97492.66;5068008;28;20032;-75
2021/07/02 11:22:42;;;;;;;6.88;6.03;;;;;;;24.91;39.79;97488.66;5058050;28;20491;-75
2021/07/02 11:25:15;;;;;;;8.73;6.05;;;;;;;24.75;38.66;97491.19;5038915;28;20487;-74
2021/07/02 11:27:54;;;;;;;7.38;6.20;;;;;;;24.58;38.20;97494.81;5051651;28;20033;-75
2021/07/02 11:30:35;;;;;;;7.18;5.78;;;;;;;24.31;40.20;97494.22;5042330;28;20040;-75
2021/07/02 11:33:10;;;;;;;7.80;5.78;;;;;;;24.02;42.62;97506.50;5017350;28;20086;-75
2021/07/02 11:35:36;;;;;;;7.07;6.38;;;;;;;24.30;39.10;97492.69;5052672;28;20036;-75
2021/07/02 11:38:08;;;;;;;7.40;5.68;;;;;;;24.22;39.98;97498.84;5069979;28;20028;-74
2021/07/02 11:40:53;;;;;;;10.05;6.20;;;;;;;23.93;40.21;97498.59;5047525;28;20028;-75